ADDS METAR Data INFO
IDs: Format: Raw Decoded Include TAF

Data at: 0024 UTC 15 Dec 2017

K2C8 150015Z AUTO 00000KT 5SM BR OVC029 M07/M07 A3004 RMK AO2
K2C8 142355Z AUTO 00000KT 10SM BKN030 OVC035 M07/M08 A3004 RMK AO2
K2C8 142335Z AUTO 00000KT 10SM -UP OVC034 M07/M08 A3004 RMK AO2
K2C8 142315Z AUTO 00000KT 10SM OVC035 M07/M08 A3004 RMK AO2
K2C8 142255Z AUTO 02005KT 9SM FEW019 BKN033 M07/M08 A3005 RMK AO2
K2C8 142235Z AUTO 00000KT 7SM -SN FEW018 BKN025 OVC034 M07/M08 A3005 RMK AO2
K2C8 142215Z AUTO 00000KT 5SM -SN FEW001 BKN025 OVC032 M07/M08 A3004 RMK AO2
K2C8 142155Z AUTO 34004KT 2SM -SN FEW001 SCT015 BKN023 M07/M08 A3004 RMK AO2
K2C8 142135Z AUTO 35003KT 4SM -SN BKN015 BKN020 OVC024 M06/M08 A3004 RMK AO2
K2C8 142115Z AUTO 34005KT 10SM FEW015 OVC020 M07/M09 A3004 RMK AO2
K2C8 142055Z AUTO 32005KT 10SM BKN014 OVC021 M07/M09 A3004 RMK AO2
K2C8 142035Z AUTO 32006KT 10SM OVC015 M07/M09 A3005 RMK AO2
K2C8 142015Z AUTO 33009KT 10SM OVC015 M07/M09 A3005 RMK AO2
K2C8 141955Z AUTO 32010KT 10SM BKN016 OVC023 M07/M09 A3005 RMK AO2
K2C8 141935Z AUTO 34009KT 10SM SCT017 OVC024 M07/M09 A3005 RMK AO2
K2C8 141915Z AUTO 34008KT 10SM FEW015 BKN024 OVC050 M07/M09 A3006 RMK AO2
K2C8 141855Z AUTO 33010KT 10SM FEW016 BKN026 OVC050 M07/M10 A3006 RMK AO2
K2C8 141835Z AUTO 34009KT 10SM SCT016 BKN025 BKN070 M07/M10 A3007 RMK AO2
K2C8 141815Z AUTO 35011KT 10SM BKN018 OVC023 M08/M10 A3007 RMK AO2
K2C8 141755Z AUTO 35009G16KT 9SM OVC017 M08/M10 A3008 RMK AO2
K2C8 141735Z AUTO 35010G16KT 9SM OVC017 M08/M10 A3009 RMK AO2
K2C8 141715Z AUTO 36012KT 9SM OVC017 M08/M10 A3009 RMK AO2
K2C8 141655Z AUTO 36010KT 7SM -SN BKN014 OVC019 M08/M10 A3009 RMK AO2
K2C8 141635Z AUTO 35013G19KT 9SM OVC014 M08/M10 A3009 RMK AO2
K2C8 141615Z AUTO 35012G17KT 7SM OVC014 M08/M09 A3009 RMK AO2
K2C8 141555Z AUTO 35012KT 4SM -SN FEW008 OVC014 M08/M09 A3008 RMK AO2
K2C8 141535Z AUTO 34011G16KT 10SM OVC018 M07/M09 A3008 RMK AO2
K2C8 141515Z AUTO 34010G16KT 9SM OVC017 M07/M09 A3007 RMK AO2
K2C8 141455Z AUTO 35013KT 10SM OVC017 M07/M09 A3006 RMK AO2
K2C8 141435Z AUTO 35014G24KT 8SM OVC016 M07/M09 A3005 RMK AO2
K2C8 141415Z AUTO 34013G18KT 2SM -SN FEW001 OVC015 M06/M08 A3004 RMK AO2
K2C8 141355Z AUTO 34016G23KT 7SM OVC017 M06/M08 A3003 RMK AO2
K2C8 141335Z AUTO 32015KT 10SM -SN SCT018 BKN028 OVC085 M06/M08 A3002 RMK AO2
K2C8 141315Z AUTO 32011KT 6SM -SN FEW004 BKN026 OVC049 M06/M08 A3002 RMK AO2
K2C8 141255Z AUTO 32009KT 6SM -UP FEW016 SCT025 OVC044 M06/M08 A3002 RMK AO2
K2C8 141235Z AUTO 32010KT 9SM -UP OVC043 M06/M08 A3001 RMK AO2
K2C8 141215Z AUTO 32006KT 10SM OVC042 M06/M08 A3000 RMK AO2
K2C8 141155Z AUTO 32006KT 10SM SCT026 SCT033 OVC043 M06/M08 A3000 RMK AO2
K2C8 141135Z AUTO 31007KT 10SM BKN023 OVC028 M06/M08 A2999 RMK AO2
K2C8 141115Z AUTO 31007KT 10SM OVC022 M06/M08 A2998 RMK AO2
K2C8 141055Z AUTO 31006KT 10SM BKN019 BKN026 OVC045 M07/M08 A2999 RMK AO2
K2C8 141035Z AUTO 31006KT 10SM FEW002 BKN020 BKN031 M07/M08 A2999 RMK AO2
K2C8 141015Z AUTO 29004KT 5SM -SN FEW002 SCT015 BKN025 M07/M08 A2998 RMK AO2
K2C8 140955Z AUTO 29003KT 9SM -SN BKN024 OVC030 M07/M08 A2999 RMK AO2
K2C8 140935Z AUTO 28005KT 10SM FEW016 OVC023 M07/M08 A2999 RMK AO2
K2C8 140915Z AUTO 26004KT 10SM FEW015 BKN022 OVC085 M07/M09 A2998 RMK AO2
K2C8 140855Z AUTO 26004KT 9SM -SN SCT015 BKN022 BKN070 M08/M09 A2998 RMK AO2
K2C8 140835Z AUTO 24004KT 10SM M08/M09 A2998 RMK AO2
K2C8 140815Z AUTO 22004KT 10SM M08/M09 A2997 RMK AO2
K2C8 140755Z AUTO 23005KT 10SM OVC014 M08/M09 A2997 RMK AO2
K2C8 140735Z AUTO 25005KT 10SM BKN015 OVC022 M08/M10 A2997 RMK AO2
K2C8 140715Z AUTO 20005KT 10SM SCT013 OVC021 M08/M10 A2997 RMK AO2
K2C8 140655Z AUTO 22004KT 10SM OVC014 M08/M10 A2998 RMK AO2
K2C8 140635Z AUTO 00000KT 10SM BKN016 BKN020 OVC027 M08/M10 A2998 RMK AO2
K2C8 140615Z AUTO 00000KT 10SM SCT012 BKN020 OVC027 M09/M10 A2999 RMK AO2
K2C8 140555Z AUTO 00000KT 10SM OVC012 M08/M10 A2999 RMK AO2
K2C8 140535Z AUTO 00000KT 10SM OVC012 M09/M10 A2999 RMK AO2
K2C8 140515Z AUTO 00000KT 10SM OVC012 M09/M10 A2999 RMK AO2
K2C8 140455Z AUTO 34004KT 10SM OVC012 M09/M11 A2999 RMK AO2
K2C8 140435Z AUTO 34006KT 10SM OVC012 M09/M11 A3000 RMK AO2
K2C8 140415Z AUTO 34007KT 10SM OVC013 M09/M11 A2999 RMK AO2
K2C8 140355Z AUTO 34007KT 8SM -SN FEW001 OVC013 M09/M11 A2998 RMK AO2
K2C8 140335Z AUTO 01007KT 8SM -SN FEW002 OVC013 M09/M11 A2998 RMK AO2
K2C8 140315Z AUTO 01005KT 10SM -SN OVC013 M09/M11 A2997 RMK AO2
K2C8 140255Z AUTO 35008KT 10SM -SN OVC014 M09/M11 A2999 RMK AO2
K2C8 140235Z AUTO 35006KT 10SM OVC014 M09/M11 A3000 RMK AO2
K2C8 140215Z AUTO 35008KT 10SM OVC014 M09/M11 A3000 RMK AO2
K2C8 140155Z AUTO 36010KT 10SM OVC014 M09/M11 A3000 RMK AO2
K2C8 140135Z AUTO 35011KT 10SM OVC015 M09/M11 A3000 RMK AO2
K2C8 140115Z AUTO 36011KT 10SM OVC014 M09/M11 A2999 RMK AO2
K2C8 140055Z AUTO 35010G16KT 9SM OVC014 M09/M11 A2999 RMK AO2
K2C8 140035Z AUTO 34012KT 10SM OVC014 M08/M10 A2999 RMK AO2
K2C8 140015Z AUTO 33013KT 10SM -SN OVC015 M08/M10 A2999 RMK AO2
K2C8 132355Z AUTO 33013KT 10SM -SN OVC016 M08/M10 A2997 RMK AO2
K2C8 132335Z AUTO 34012G17KT 10SM OVC016 M08/M10 A2997 RMK AO2
K2C8 132315Z AUTO 33012KT 10SM OVC017 M07/M10 A2996 RMK AO2
K2C8 132255Z AUTO 33011G17KT 10SM OVC017 M07/M10 A2995 RMK AO2
K2C8 132235Z AUTO 35014KT 9SM OVC017 M07/M10 A2994 RMK AO2
K2C8 132215Z AUTO 35012G19KT 8SM OVC018 M07/M09 A2993 RMK AO2
K2C8 132155Z AUTO 35015G21KT 9SM OVC019 M07/M10 A2992 RMK AO2
K2C8 132135Z AUTO 35017G22KT 10SM OVC021 M06/M10 A2991 RMK AO2
K2C8 132115Z AUTO 34015G24KT 9SM OVC019 M06/M09 A2990 RMK AO2
K2C8 132055Z AUTO 35014G20KT 8SM -UP OVC019 M06/M08 A2989 RMK AO2
K2C8 132035Z AUTO 35016G22KT 9SM OVC020 M06/M09 A2988 RMK AO2
K2C8 132015Z AUTO 35012G21KT 8SM OVC021 M06/M09 A2987 RMK AO2
K2C8 131955Z AUTO 35016G25KT 2 1/2SM UP FEW013 OVC020 M06/M08 A2986 RMK AO2
K2C8 131935Z AUTO 35015G21KT 4SM -UP M06/M07 A2986 RMK AO2
K2C8 131915Z AUTO 35015KT 10SM M06/M08 A2985 RMK AO2
K2C8 131855Z AUTO 34016KT 10SM OVC018 M06/M08 A2985 RMK AO2
K2C8 131835Z AUTO 35015G24KT 9SM BKN016 OVC035 M05/M07 A2984 RMK AO2
K2C8 131815Z AUTO 34017G27KT 10SM SCT018 SCT023 OVC034 M05/M08 A2983 RMK AO2
K2C8 131755Z AUTO 35020G29KT 10SM OVC016 M05/M08 A2983 RMK AO2
K2C8 131735Z AUTO 35015G27KT 9SM -UP OVC012 M05/M06 A2982 RMK AO2
K2C8 131715Z AUTO 35021G28KT 7SM OVC010 M05/M06 A2982 RMK AO2
K2C8 131655Z AUTO 34014G23KT 3SM -UP BKN007 OVC013 M04/M05 A2981 RMK AO2
K2C8 131635Z AUTO 35016G25KT 2 1/2SM BR OVC007 M04/M04 A2981 RMK AO2
K2C8 131615Z AUTO 35017G25KT 2SM -UP OVC007 M04/M04 A2979 RMK AO2
K2C8 131555Z AUTO 35018KT 7SM -UP OVC007 M04/M04 A2978 RMK AO2
K2C8 131535Z AUTO 34012G24KT 8SM OVC007 M04/M04 A2977 RMK AO2
K2C8 131515Z AUTO 35015KT 2 1/2SM BR BKN007 OVC011 M04/M04 A2976 RMK AO2
K2C8 131455Z AUTO 34015G24KT 3SM BR OVC009 M04/M04 A2975 RMK AO2
K2C8 131435Z AUTO 34020G25KT 4SM BR OVC010 M03/M04 A2973 RMK AO2
K2C8 131415Z AUTO 34018G25KT 5SM BR OVC012 M03/M04 A2973 RMK AO2
K2C8 131355Z AUTO 34021G31KT 10SM BKN016 OVC021 M03/M05 A2973 RMK AO2
K2C8 131335Z AUTO 34023G31KT 10SM BKN016 OVC022 M03/M05 A2972 RMK AO2
K2C8 131315Z AUTO 34026G34KT 10SM OVC014 M03/M04 A2971 RMK AO2
K2C8 131255Z AUTO 34022G28KT 10SM OVC011 M03/M04 A2970 RMK AO2
K2C8 131235Z AUTO 34019KT 10SM BKN013 OVC019 M03/M04 A2969 RMK AO2